Time;durP1;ratioP1;P1;durP2;ratioP2;P2;SDS_P1;SDS_P2;PMS_P1;PMS_P2;Temp;Humidity;BMP_temperature;BMP_pressure;BME280_temperature;BME280_humidity;BME280_pressure;Samples;Min_cycle;Max_cycle;Signal;HPM_P1;HPM_P2
2023/05/05 00:02:23;;;;;;;14.45;7.30;;;;;;;13.67;100.00;101017.78;5063595;28;20045;-75
2023/05/05 00:04:49;;;;;;;16.60;6.57;;;;;;;13.68;100.00;101018.59;5069650;28;20048;-75
2023/05/05 00:07:16;;;;;;;14.95;6.80;;;;;;;13.67;100.00;101012.22;5063927;28;20520;-75
2023/05/05 00:09:43;;;;;;;16.50;7.13;;;;;;;13.65;100.00;101013.88;5064235;28;20048;-76
2023/05/05 00:12:09;;;;;;;14.48;7.32;;;;;;;13.62;100.00;101011.94;5065997;28;20044;-76
2023/05/05 00:14:36;;;;;;;16.70;7.20;;;;;;;13.59;100.00;101008.00;5064768;28;20053;-76
2023/05/05 00:17:02;;;;;;;17.75;7.35;;;;;;;13.56;100.00;101010.84;5063832;28;20052;-74
2023/05/05 00:19:29;;;;;;;14.77;7.45;;;;;;;13.45;100.00;101010.28;5062287;28;20051;-75
2023/05/05 00:21:56;;;;;;;19.70;7.55;;;;;;;13.42;100.00;101009.16;5063628;28;20053;-74
2023/05/05 00:24:23;;;;;;;14.43;7.10;;;;;;;13.42;100.00;101003.56;5060997;28;20048;-74
2023/05/05 00:26:49;;;;;;;15.65;6.80;;;;;;;13.43;100.00;101004.38;5070705;28;20052;-72
2023/05/05 00:29:16;;;;;;;15.73;6.65;;;;;;;13.43;100.00;101004.38;5069307;28;20099;-74
2023/05/05 00:31:42;;;;;;;18.45;7.22;;;;;;;13.43;100.00;100996.75;5076923;28;20048;-76
2023/05/05 00:34:09;;;;;;;16.40;6.85;;;;;;;13.39;100.00;100992.44;5064288;28;20774;-74
2023/05/05 00:36:36;;;;;;;15.77;7.10;;;;;;;13.41;100.00;101001.16;5078516;28;20429;-73
2023/05/05 00:39:02;;;;;;;14.13;6.80;;;;;;;13.38;100.00;101002.03;5070292;28;20070;-72
2023/05/05 00:41:29;;;;;;;14.13;6.93;;;;;;;13.34;100.00;100996.53;5070266;28;20053;-75
2023/05/05 00:43:55;;;;;;;16.13;7.10;;;;;;;13.30;100.00;100997.81;5065636;28;20048;-74
2023/05/05 00:46:24;;;;;;;13.48;6.10;;;;;;;13.34;100.00;101006.91;5070462;28;20053;-74
2023/05/05 00:48:52;;;;;;;14.48;7.20;;;;;;;13.34;100.00;100998.53;5069930;28;20052;-75
2023/05/05 00:51:19;;;;;;;16.23;6.88;;;;;;;13.34;100.00;100998.53;5069917;28;20087;-73
2023/05/05 00:53:49;;;;;;;14.02;6.97;;;;;;;13.30;100.00;100989.44;5068376;28;20048;-74
2023/05/05 00:56:18;;;;;;;16.02;7.00;;;;;;;13.33;100.00;100996.97;5068908;28;20066;-75
2023/05/05 00:58:44;;;;;;;19.48;6.90;;;;;;;13.35;100.00;100991.72;5068553;28;20130;-73
2023/05/05 01:01:11;;;;;;;13.68;6.70;;;;;;;13.38;100.00;100993.66;5070099;28;20079;-75
2023/05/05 01:03:39;;;;;;;15.43;6.93;;;;;;;13.36;100.00;100984.91;5067710;28;20048;-75
2023/05/05 01:06:29;;;;;;;19.08;7.25;;;;;;;13.35;100.00;100983.34;5068666;28;20049;-76
2023/05/05 01:09:19;;;;;;;13.65;6.40;;;;;;;13.31;100.00;100982.63;5068781;28;20049;-75
2023/05/05 01:11:56;;;;;;;14.52;6.47;;;;;;;13.29;100.00;100969.09;5065692;28;20147;-76
2023/05/05 01:14:47;;;;;;;16.33;6.95;;;;;;;13.29;100.00;100982.25;5070309;28;20056;-75
2023/05/05 01:17:19;;;;;;;15.20;7.10;;;;;;;13.15;100.00;100988.13;5066664;28;20045;-74
2023/05/05 01:19:58;;;;;;;16.17;7.13;;;;;;;13.06;100.00;100971.94;5067711;28;20605;-76
2023/05/05 01:22:38;;;;;;;17.02;7.82;;;;;;;13.11;100.00;100979.03;5077037;28;20112;-74
2023/05/05 01:25:28;;;;;;;13.73;6.55;;;;;;;13.09;100.00;100981.47;5068194;28;20419;-76
2023/05/05 01:28:14;;;;;;;16.92;7.68;;;;;;;13.09;100.00;100979.47;5061724;28;20166;-74
2023/05/05 01:31:02;;;;;;;15.90;6.72;;;;;;;13.11;100.00;100990.19;5066972;28;20048;-76
2023/05/05 01:33:35;;;;;;;12.52;6.03;;;;;;;13.11;100.00;100987.41;5068433;28;20049;-75
2023/05/05 01:36:09;;;;;;;12.73;6.45;;;;;;;13.09;100.00;100973.88;5067260;28;20113;-73
2023/05/05 01:38:42;;;;;;;15.98;7.22;;;;;;;13.10;100.00;100974.69;5066343;28;20130;-76
2023/05/05 01:41:17;;;;;;;17.02;6.75;;;;;;;13.12;100.00;100977.81;5068605;28;20055;-73
2023/05/05 01:43:49;;;;;;;14.98;7.13;;;;;;;13.15;100.00;100993.72;5068486;28;20047;-75
2023/05/05 01:46:17;;;;;;;15.65;8.10;;;;;;;13.18;100.00;100990.06;5075042;28;20055;-74
2023/05/05 01:48:47;;;;;;;15.10;7.35;;;;;;;13.19;100.00;100988.84;5066548;28;20052;-73
2023/05/05 01:51:17;;;;;;;14.32;7.68;;;;;;;13.17;100.00;100991.28;5064571;28;20054;-73
2023/05/05 01:53:46;;;;;;;16.20;7.43;;;;;;;13.20;100.00;100996.03;5075881;28;20048;-74
2023/05/05 01:56:14;;;;;;;18.13;7.07;;;;;;;13.23;100.00;100995.16;5071657;28;20047;-72
2023/05/05 01:58:43;;;;;;;14.95;7.20;;;;;;;13.22;100.00;100993.56;5067842;28;20076;-74
2023/05/05 02:01:12;;;;;;;16.08;8.60;;;;;;;13.19;100.00;100994.41;5067687;28;20054;-74
2023/05/05 02:03:40;;;;;;;17.13;7.03;;;;;;;13.18;100.00;100987.28;5067769;28;20102;-74
2023/05/05 02:06:09;;;;;;;14.40;6.68;;;;;;;13.18;100.00;100982.50;5069299;28;20049;-73
2023/05/05 02:08:38;;;;;;;16.92;7.22;;;;;;;13.21;100.00;100995.59;5067332;28;20135;-75
2023/05/05 02:11:07;;;;;;;16.45;7.20;;;;;;;13.21;100.00;101000.38;5066572;28;20049;-74
2023/05/05 02:13:35;;;;;;;16.40;7.75;;;;;;;13.21;100.00;101001.19;5076572;28;20142;-71
2023/05/05 02:16:04;;;;;;;16.88;7.88;;;;;;;13.20;100.00;101001.59;5076295;28;20465;-74
2023/05/05 02:18:34;;;;;;;21.40;8.13;;;;;;;13.25;100.00;101006.69;5068685;28;20135;-73
2023/05/05 02:21:02;;;;;;;17.60;7.90;;;;;;;13.33;100.00;101010.91;5066882;28;20082;-74
2023/05/05 02:23:29;;;;;;;16.23;7.72;;;;;;;13.35;100.00;101009.25;5075998;28;20048;-74
2023/05/05 02:26:05;;;;;;;19.13;8.52;;;;;;;13.42;100.00;101013.91;5068534;28;20052;-75
2023/05/05 02:28:37;;;;;;;16.58;7.95;;;;;;;13.52;100.00;101013.75;5064786;28;20597;-73
2023/05/05 02:31:06;;;;;;;22.27;8.40;;;;;;;13.58;100.00;101011.22;5066035;28;20094;-75
2023/05/05 02:33:35;;;;;;;16.30;8.25;;;;;;;13.66;100.00;101015.44;5066776;28;20115;-76
2023/05/05 02:36:11;;;;;;;18.23;7.30;;;;;;;13.71;100.00;101020.53;5066138;28;20068;-74
2023/05/05 02:38:42;;;;;;;17.20;7.68;;;;;;;13.73;100.00;101027.25;5066828;28;20056;-75
2023/05/05 02:41:15;;;;;;;20.08;8.05;;;;;;;13.77;100.00;101029.97;5061410;28;20051;-74
2023/05/05 02:43:43;;;;;;;19.85;8.93;;;;;;;13.84;100.00;101035.41;5067565;28;20419;-72
2023/05/05 02:46:10;;;;;;;21.73;8.65;;;;;;;13.87;100.00;101028.97;5066412;28;20044;-73
2023/05/05 02:48:36;;;;;;;17.35;7.72;;;;;;;13.88;100.00;101033.34;5067896;28;20106;-74
2023/05/05 02:51:03;;;;;;;16.83;7.72;;;;;;;13.85;100.00;101043.38;5060624;28;20048;-76
2023/05/05 02:53:29;;;;;;;15.00;7.45;;;;;;;13.90;100.00;101042.84;5075082;28;20049;-74
2023/05/05 02:56:05;;;;;;;15.68;7.82;;;;;;;14.03;100.00;101043.75;5073170;28;20141;-74
2023/05/05 02:58:47;;;;;;;19.65;8.50;;;;;;;14.12;100.00;101040.38;5068567;28;20057;-75
2023/05/05 03:01:38;;;;;;;19.10;8.20;;;;;;;14.20;100.00;101052.97;5066133;28;20036;-74
2023/05/05 03:04:07;;;;;;;18.83;7.85;;;;;;;14.30;100.00;101043.53;5067608;28;20045;-76
2023/05/05 03:06:47;;;;;;;16.27;7.43;;;;;;;14.30;100.00;101051.94;5066850;28;20515;-74
2023/05/05 03:09:36;;;;;;;17.20;7.28;;;;;;;14.37;100.00;101057.34;5066569;28;20048;-74
2023/05/05 03:12:06;;;;;;;17.10;7.97;;;;;;;14.44;100.00;101051.63;5061508;28;20052;-73
2023/05/05 03:14:40;;;;;;;17.90;8.52;;;;;;;14.48;100.00;101055.13;5075754;28;20055;-74
2023/05/05 03:17:10;;;;;;;20.33;8.50;;;;;;;14.49;100.00;101059.50;5075634;28;20146;-74
2023/05/05 03:19:40;;;;;;;16.42;7.75;;;;;;;14.55;100.00;101064.13;5066495;28;20127;-74
2023/05/05 03:22:07;;;;;;;19.83;10.27;;;;;;;14.65;100.00;101059.53;5080268;28;20063;-74
2023/05/05 03:24:34;;;;;;;17.73;9.50;;;;;;;14.64;100.00;101061.53;5068193;28;20056;-76
2023/05/05 03:27:01;;;;;;;21.45;10.10;;;;;;;14.68;100.00;101069.81;5067170;28;20044;-73
2023/05/05 03:29:29;;;;;;;19.48;10.52;;;;;;;14.69;100.00;101071.41;5064774;28;20548;-76
2023/05/05 03:31:55;;;;;;;19.05;10.55;;;;;;;14.71;100.00;101068.94;5066460;28;20052;-71
2023/05/05 03:34:22;;;;;;;21.58;10.52;;;;;;;14.66;100.00;101072.28;5066324;28;20109;-74
2023/05/05 03:36:48;;;;;;;20.73;10.63;;;;;;;14.64;100.00;101074.72;5066954;28;20135;-74
2023/05/05 03:39:15;;;;;;;19.23;10.15;;;;;;;14.67;100.00;101076.66;5066431;28;20044;-74
2023/05/05 03:41:41;;;;;;;17.88;9.80;;;;;;;14.60;100.00;101080.41;5067159;28;20062;-75
2023/05/05 03:44:08;;;;;;;22.27;11.75;;;;;;;14.57;100.00;101061.69;5071907;28;20044;-74
2023/05/05 03:46:34;;;;;;;21.27;11.32;;;;;;;14.59;100.00;101064.06;5062374;28;20056;-72
2023/05/05 03:49:01;;;;;;;21.40;11.00;;;;;;;14.56;100.00;101068.50;5064306;28;20052;-75
2023/05/05 03:51:27;;;;;;;26.98;12.35;;;;;;;14.54;100.00;101070.16;5068136;28;20075;-74
2023/05/05 03:53:54;;;;;;;25.92;12.43;;;;;;;14.58;100.00;101068.88;5078305;28;20048;-74
2023/05/05 03:56:20;;;;;;;23.13;12.05;;;;;;;14.59;100.00;101072.47;5063802;28;20553;-76
2023/05/05 03:58:47;;;;;;;24.63;12.85;;;;;;;14.56;100.00;101062.91;5069275;28;22141;-74
2023/05/05 04:01:13;;;;;;;23.65;12.07;;;;;;;14.48;100.00;101077.50;5068876;28;20037;-74
2023/05/05 04:03:40;;;;;;;21.10;11.80;;;;;;;14.32;100.00;101081.03;5078432;28;20053;-73
2023/05/05 04:06:06;;;;;;;26.55;11.20;;;;;;;14.25;100.00;101070.00;5071407;28;20045;-74
2023/05/05 04:08:33;;;;;;;24.77;12.52;;;;;;;14.23;100.00;101071.66;5069193;28;20409;-75
2023/05/05 04:11:02;;;;;;;24.80;12.07;;;;;;;14.19;100.00;101068.19;5069293;28;20414;-74
2023/05/05 04:13:29;;;;;;;22.40;12.02;;;;;;;14.09;100.00;101078.38;5070170;28;20053;-75
2023/05/05 04:15:55;;;;;;;22.92;12.00;;;;;;;14.09;100.00;101083.19;5068386;28;20048;-75
2023/05/05 04:18:22;;;;;;;28.65;11.82;;;;;;;14.06;100.00;101073.66;5069419;28;20546;-73
2023/05/05 04:20:48;;;;;;;22.40;12.10;;;;;;;14.02;100.00;101070.16;5070803;28;20048;-74
2023/05/05 04:23:15;;;;;;;25.63;12.75;;;;;;;13.90;100.00;101073.59;5077824;28;20052;-75
2023/05/05 04:25:41;;;;;;;24.23;12.90;;;;;;;13.85;100.00;101070.53;5069634;28;20063;-74
2023/05/05 04:28:08;;;;;;;31.02;12.88;;;;;;;13.81;100.00;101073.38;5068527;28;20052;-75
2023/05/05 04:30:34;;;;;;;24.13;12.90;;;;;;;13.77;100.00;101077.50;5070199;28;20044;-74
2023/05/05 04:33:01;;;;;;;25.85;13.32;;;;;;;13.71;100.00;101079.19;5068825;28;20133;-73
2023/05/05 04:35:27;;;;;;;22.75;13.00;;;;;;;13.62;100.00;101084.56;5074805;28;20113;-73
2023/05/05 04:37:54;;;;;;;23.20;12.98;;;;;;;13.53;100.00;101092.72;5081939;28;20059;-76
2023/05/05 04:40:21;;;;;;;26.73;13.40;;;;;;;13.46;100.00;101098.44;5069565;28;20430;-73
2023/05/05 04:42:47;;;;;;;25.17;13.70;;;;;;;13.46;100.00;101098.44;5072724;28;20059;-73
2023/05/05 04:45:14;;;;;;;27.88;15.35;;;;;;;13.49;100.00;101086.41;5073975;28;20058;-76
2023/05/05 04:47:40;;;;;;;26.50;14.63;;;;;;;13.53;100.00;101089.91;5077219;28;20052;-75
2023/05/05 04:50:08;;;;;;;25.60;13.77;;;;;;;13.48;100.00;101096.03;5068401;28;20502;-74
2023/05/05 04:52:35;;;;;;;26.80;14.27;;;;;;;13.37;100.00;101101.75;5079944;28;20543;-75
2023/05/05 04:55:01;;;;;;;25.88;13.93;;;;;;;13.32;100.00;101115.44;5074252;28;20044;-74
2023/05/05 04:57:29;;;;;;;26.90;14.98;;;;;;;13.32;100.00;101115.44;5068668;28;20467;-74
2023/05/05 04:59:55;;;;;;;25.75;14.90;;;;;;;13.36;100.00;101125.34;5070334;28;20048;-74
2023/05/05 05:02:22;;;;;;;27.55;14.15;;;;;;;13.28;100.00;101123.09;5068910;28;20048;-75
2023/05/05 05:04:49;;;;;;;29.75;16.17;;;;;;;13.33;100.00;101125.41;5066987;28;20411;-75
2023/05/05 05:07:15;;;;;;;30.70;15.23;;;;;;;13.31;100.00;101130.63;5067993;28;20059;-74
2023/05/05 05:09:41;;;;;;;25.80;14.98;;;;;;;13.37;100.00;101134.50;5067929;28;20837;-75
2023/05/05 05:12:08;;;;;;;33.42;17.40;;;;;;;13.41;100.00;101124.06;5069725;28;20049;-74
2023/05/05 05:14:36;;;;;;;24.40;14.13;;;;;;;13.39;100.00;101126.47;5066621;28;20067;-77
2023/05/05 05:17:06;;;;;;;27.10;14.48;;;;;;;13.46;100.00;101143.13;5069417;28;20075;-73
2023/05/05 05:19:33;;;;;;;31.20;15.95;;;;;;;13.55;100.00;101146.16;5068576;28;20434;-72
2023/05/05 05:21:59;;;;;;;32.08;16.70;;;;;;;13.61;100.00;101145.22;5074375;28;20040;-74
2023/05/05 05:24:26;;;;;;;33.53;17.10;;;;;;;13.67;100.00;101154.69;5069257;28;20062;-75
2023/05/05 05:26:52;;;;;;;33.88;18.27;;;;;;;13.74;100.00;101151.00;5068168;28;20419;-74
2023/05/05 05:29:19;;;;;;;27.52;16.17;;;;;;;13.79;100.00;101154.06;5066804;28;20079;-73
2023/05/05 05:31:45;;;;;;;29.58;14.07;;;;;;;13.80;100.00;101152.84;5060959;28;20662;-73
2023/05/05 05:34:15;;;;;;;33.47;16.35;;;;;;;13.92;100.00;101152.22;5066786;28;20410;-75
2023/05/05 05:36:41;;;;;;;33.17;17.23;;;;;;;14.01;100.00;101158.00;5067767;28;20044;-74
2023/05/05 05:39:08;;;;;;;33.38;16.58;;;;;;;14.04;100.00;101157.16;5067010;28;20044;-76
2023/05/05 05:41:34;;;;;;;31.33;15.20;;;;;;;14.10;100.00;101160.22;5070180;28;20048;-73
2023/05/05 05:44:00;;;;;;;30.05;17.75;;;;;;;14.19;100.00;101155.66;5068829;28;20044;-73
2023/05/05 05:46:27;;;;;;;20.25;9.15;;;;;;;14.16;100.00;101162.09;5066626;28;20048;-75
2023/05/05 05:48:54;;;;;;;17.73;7.90;;;;;;;14.12;100.00;101158.59;5068576;28;20671;-74
2023/05/05 05:51:20;;;;;;;10.90;6.03;;;;;;;14.22;100.00;101162.38;5062087;28;20048;-74
2023/05/05 05:53:46;;;;;;;19.23;9.30;;;;;;;14.29;100.00;101171.44;5075975;28;20056;-74
2023/05/05 05:56:13;;;;;;;23.02;9.75;;;;;;;14.36;100.00;101168.47;5067503;28;20052;-76
2023/05/05 05:58:39;;;;;;;30.40;15.45;;;;;;;14.44;100.00;101167.13;5063304;28;20045;-75
2023/05/05 06:01:06;;;;;;;32.78;17.40;;;;;;;14.52;100.00;101181.75;5070814;28;20534;-78
2023/05/05 06:03:33;;;;;;;29.73;16.42;;;;;;;14.53;100.00;101172.13;5069264;28;20059;-72
2023/05/05 06:06:00;;;;;;;32.40;10.43;;;;;;;14.53;100.00;101177.72;5062945;28;20109;-74
2023/05/05 06:08:26;;;;;;;25.40;14.25;;;;;;;14.63;100.00;101176.69;5066538;28;20056;-75
2023/05/05 06:10:53;;;;;;;15.18;7.63;;;;;;;14.67;100.00;101183.00;5066254;28;20048;-72
2023/05/05 06:13:20;;;;;;;30.15;14.32;;;;;;;14.76;100.00;101180.38;5068556;28;20052;-72
2023/05/05 06:15:47;;;;;;;28.80;16.45;;;;;;;14.88;100.00;101174.09;5064560;28;20052;-72
2023/05/05 06:18:14;;;;;;;28.58;12.65;;;;;;;14.83;100.00;101177.44;5073549;28;20094;-75
2023/05/05 06:20:42;;;;;;;18.20;8.45;;;;;;;14.88;100.00;101174.09;5066240;28;20044;-72
2023/05/05 06:23:08;;;;;;;30.52;16.58;;;;;;;14.97;100.00;101179.88;5067664;28;20541;-73
2023/05/05 06:25:35;;;;;;;32.80;15.15;;;;;;;15.11;100.00;101176.72;5067368;28;20458;-77
2023/05/05 06:28:01;;;;;;;29.30;14.77;;;;;;;15.14;100.00;101178.66;5067357;28;20048;-72
2023/05/05 06:30:28;;;;;;;30.27;15.57;;;;;;;15.18;100.00;101184.97;5076096;28;20063;-71
2023/05/05 06:32:55;;;;;;;26.17;14.82;;;;;;;15.27;100.00;101179.53;5064671;28;20076;-74
2023/05/05 06:35:21;;;;;;;29.20;14.75;;;;;;;15.36;100.00;101173.34;5067802;28;20091;-74
2023/05/05 06:37:48;;;;;;;28.23;13.85;;;;;;;15.45;100.00;101167.88;5068006;28;20053;-72
2023/05/05 06:40:15;;;;;;;24.90;13.25;;;;;;;15.50;100.00;101170.97;5068711;28;20045;-73
2023/05/05 06:42:41;;;;;;;25.55;11.43;;;;;;;15.48;100.00;101176.22;5065525;28;20060;-72
2023/05/05 06:45:08;;;;;;;23.17;10.35;;;;;;;15.58;100.00;101177.94;5066456;28;20049;-73
2023/05/05 06:47:35;;;;;;;17.23;8.05;;;;;;;15.71;100.00;101178.00;5067667;28;20423;-76
2023/05/05 06:50:02;;;;;;;17.30;7.25;;;;;;;15.71;100.00;101164.00;5066929;28;20055;-74
2023/05/05 06:52:29;;;;;;;17.60;7.05;;;;;;;15.97;100.00;101185.31;5069189;28;20499;-74
2023/05/05 06:54:55;;;;;;;13.57;5.75;;;;;;;16.01;100.00;101178.38;5064050;28;20045;-76
2023/05/05 06:57:22;;;;;;;18.40;7.28;;;;;;;16.12;100.00;101190.06;5063159;28;20072;-76
2023/05/05 06:59:48;;;;;;;17.95;7.45;;;;;;;16.23;100.00;101179.31;5060323;28;20129;-73
2023/05/05 07:02:15;;;;;;;17.10;6.88;;;;;;;16.30;100.00;101172.75;5062759;28;20073;-73
2023/05/05 07:04:42;;;;;;;14.52;6.88;;;;;;;16.39;100.00;101178.47;5056808;28;20054;-73
2023/05/05 07:07:09;;;;;;;13.57;5.40;;;;;;;16.58;100.00;101178.28;5054498;28;20448;-74
2023/05/05 07:09:35;;;;;;;16.55;6.60;;;;;;;16.70;100.00;101183.13;5061548;28;20052;-74
2023/05/05 07:12:02;;;;;;;14.23;6.60;;;;;;;16.79;100.00;101188.88;5073151;28;20049;-73
2023/05/05 07:14:29;;;;;;;15.82;6.85;;;;;;;16.92;100.00;101191.66;5060459;28;20572;-77
2023/05/05 07:16:56;;;;;;;14.75;6.72;;;;;;;16.89;100.00;101193.38;5062303;28;20052;-75
2023/05/05 07:19:22;;;;;;;9.60;3.90;;;;;;;16.86;100.00;101201.88;5067114;28;20080;-73
2023/05/05 07:21:49;;;;;;;12.23;5.22;;;;;;;16.88;100.00;101199.44;5078620;28;20051;-76
2023/05/05 07:24:15;;;;;;;14.80;5.85;;;;;;;16.97;100.00;101216.38;5069542;28;20052;-72
2023/05/05 07:26:42;;;;;;;12.32;5.13;;;;;;;16.94;100.00;101217.28;5066167;28;20499;-74
2023/05/05 07:29:08;;;;;;;17.67;7.03;;;;;;;17.05;100.00;101218.50;5060762;28;20049;-74
2023/05/05 07:31:35;;;;;;;15.93;6.65;;;;;;;17.10;100.00;101219.97;5066026;28;20097;-77
2023/05/05 07:34:01;;;;;;;17.27;6.55;;;;;;;17.11;100.00;101219.56;5063031;28;20059;-74
2023/05/05 07:36:28;;;;;;;15.18;6.30;;;;;;;17.12;100.00;101231.59;5065620;28;20127;-75
2023/05/05 07:38:56;;;;;;;18.08;8.30;;;;;;;17.17;100.00;101234.63;5064412;28;20087;-74
2023/05/05 07:41:22;;;;;;;15.30;7.30;;;;;;;17.16;100.00;101232.25;5074232;28;20044;-73
2023/05/05 07:43:48;;;;;;;16.15;6.65;;;;;;;17.06;100.00;101228.53;5062731;28;20062;-74
2023/05/05 07:46:15;;;;;;;14.73;7.28;;;;;;;17.16;100.00;101235.84;5062873;28;20045;-73
2023/05/05 07:48:42;;;;;;;15.05;7.55;;;;;;;17.16;100.00;101233.06;5062153;28;20529;-74
2023/05/05 07:51:09;;;;;;;17.20;7.07;;;;;;;17.25;100.00;101235.19;5072887;28;20063;-74
2023/05/05 07:53:36;;;;;;;16.20;7.22;;;;;;;17.25;100.00;101233.13;5062306;28;20475;-76
2023/05/05 07:56:03;;;;;;;15.88;7.00;;;;;;;17.35;100.00;101231.19;5061224;28;20123;-78
2023/05/05 07:58:29;;;;;;;16.88;6.93;;;;;;;17.45;100.00;101230.06;5054442;28;20040;-73
2023/05/05 08:00:56;;;;;;;18.42;7.13;;;;;;;17.51;100.00;101231.06;5058302;28;20068;-78
2023/05/05 08:03:25;;;;;;;21.85;8.13;;;;;;;17.51;100.00;101238.75;5049238;28;20048;-78
2023/05/05 08:05:53;;;;;;;15.50;6.60;;;;;;;17.53;100.00;101234.22;5055250;28;20080;-76
2023/05/05 08:08:23;;;;;;;15.82;5.97;;;;;;;17.60;100.00;101239.63;5058049;28;20052;-76
2023/05/05 08:10:51;;;;;;;20.85;7.03;;;;;;;17.57;100.00;101234.09;5061458;28;20044;-74
2023/05/05 08:13:18;;;;;;;17.48;7.60;;;;;;;17.56;100.00;101241.75;5069352;28;20056;-73
2023/05/05 08:15:44;;;;;;;16.02;6.93;;;;;;;17.61;100.00;101246.78;5064647;28;20056;-75
2023/05/05 08:18:11;;;;;;;17.83;7.78;;;;;;;17.68;100.00;101243.75;5064459;28;20163;-75
2023/05/05 08:20:37;;;;;;;20.35;8.27;;;;;;;17.63;100.00;101246.34;5065999;28;20055;-74
2023/05/05 08:23:04;;;;;;;19.95;7.32;;;;;;;17.63;100.00;101244.34;5069963;28;20059;-74
2023/05/05 08:25:30;;;;;;;16.55;7.30;;;;;;;17.63;100.00;101237.91;5061703;28;20056;-75
2023/05/05 08:27:57;;;;;;;19.42;8.85;;;;;;;17.76;100.00;101244.28;5069804;28;20059;-75
2023/05/05 08:30:23;;;;;;;19.05;8.80;;;;;;;17.93;100.00;101246.53;5063943;28;20403;-73
2023/05/05 08:32:50;;;;;;;16.10;7.75;;;;;;;18.05;100.00;101247.69;5058786;28;20063;-72
2023/05/05 08:35:16;;;;;;;16.45;6.78;;;;;;;18.00;100.00;101246.28;5065444;28;20052;-74
2023/05/05 08:37:43;;;;;;;16.48;7.82;;;;;;;18.04;100.00;101240.50;5064501;28;20049;-72
2023/05/05 08:40:13;;;;;;;18.80;8.55;;;;;;;18.03;100.00;101244.56;5066134;28;20109;-76
2023/05/05 08:42:40;;;;;;;17.00;8.30;;;;;;;18.08;100.00;101258.03;5064785;28;20040;-74
2023/05/05 08:45:08;;;;;;;20.55;9.45;;;;;;;18.12;100.00;101239.78;5068402;28;20460;-76
2023/05/05 08:47:37;;;;;;;17.33;8.43;;;;;;;18.18;100.00;101257.66;5077197;28;20116;-74
2023/05/05 08:50:04;;;;;;;17.92;7.72;;;;;;;18.14;100.00;101242.94;5064288;28;20490;-74
2023/05/05 08:52:42;;;;;;;18.95;7.88;;;;;;;18.08;100.00;101250.41;5066788;28;20053;-73
2023/05/05 08:55:26;;;;;;;19.40;7.65;;;;;;;18.23;100.00;101242.22;5068105;28;20695;-74
2023/05/05 08:57:57;;;;;;;17.60;8.35;;;;;;;18.37;100.00;101241.72;5061966;28;20402;-74
2023/05/05 09:00:25;;;;;;;20.05;9.45;;;;;;;18.40;100.00;101244.38;5066718;28;20109;-74
2023/05/05 09:02:55;;;;;;;18.30;7.78;;;;;;;18.51;100.00;101241.19;5062963;28;20743;-73
2023/05/05 09:05:23;;;;;;;18.52;7.68;;;;;;;18.60;100.00;101246.88;5064489;28;20048;-72
2023/05/05 09:07:50;;;;;;;6.00;2.65;;;;;;;18.36;100.00;101237.34;5057811;28;20056;-74
2023/05/05 09:10:17;;;;;;;18.20;7.75;;;;;;;18.46;100.00;101238.97;5059112;28;20056;-71
2023/05/05 09:12:44;;;;;;;14.55;6.32;;;;;;;18.53;100.00;101236.66;5055110;28;20041;-74
2023/05/05 09:15:12;;;;;;;17.95;8.30;;;;;;;18.70;100.00;101234.41;5058209;28;20343;-72
2023/05/05 09:17:40;;;;;;;12.80;6.28;;;;;;;18.79;100.00;101240.09;5056424;28;20414;-73
2023/05/05 09:20:10;;;;;;;16.05;6.63;;;;;;;18.89;100.00;101233.28;5060310;28;20056;-74
2023/05/05 09:22:37;;;;;;;11.25;4.90;;;;;;;19.18;100.00;101233.72;5056442;28;20087;-76
2023/05/05 09:25:06;;;;;;;15.95;6.45;;;;;;;19.46;100.00;101232.53;5060832;28;20404;-76
2023/05/05 09:27:37;;;;;;;17.15;5.70;;;;;;;19.75;100.00;101242.19;5065191;28;20055;-74
2023/05/05 09:30:05;;;;;;;15.80;5.38;;;;;;;19.89;100.00;101249.25;5066354;28;20057;-73
2023/05/05 09:32:48;;;;;;;13.10;6.20;;;;;;;19.92;100.00;101248.31;5060362;28;20055;-71
2023/05/05 09:35:16;;;;;;;15.07;6.30;;;;;;;20.12;100.00;101245.84;5061977;28;20125;-73
2023/05/05 09:37:43;;;;;;;10.65;4.60;;;;;;;20.25;100.00;101254.16;5058090;28;20048;-72
2023/05/05 09:40:12;;;;;;;13.38;5.07;;;;;;;19.96;100.00;101254.59;5057676;28;20430;-72
2023/05/05 09:42:40;;;;;;;13.30;5.50;;;;;;;20.04;100.00;101261.50;5053991;28;20049;-73
2023/05/05 09:45:16;;;;;;;10.05;5.20;;;;;;;19.99;100.00;101258.50;5058047;28;20090;-72
2023/05/05 09:47:44;;;;;;;17.67;5.90;;;;;;;20.21;100.00;101256.34;5058355;28;20068;-75
2023/05/05 09:50:14;;;;;;;14.48;5.95;;;;;;;20.40;100.00;101255.06;5054735;28;20064;-74
2023/05/05 09:52:42;;;;;;;17.17;6.45;;;;;;;20.57;100.00;101257.09;5056939;28;20053;-73
2023/05/05 09:55:17;;;;;;;14.77;6.20;;;;;;;20.79;100.00;101252.00;5056485;28;20048;-73
2023/05/05 09:57:46;;;;;;;14.20;4.93;;;;;;;20.75;100.00;101248.56;5053791;28;20059;-71
2023/05/05 10:00:13;;;;;;;7.45;3.35;;;;;;;20.30;100.00;101245.84;5054796;28;20107;-73
2023/05/05 10:02:40;;;;;;;11.63;4.38;;;;;;;20.14;100.00;101239.69;5057273;28;20044;-76
2023/05/05 10:05:11;;;;;;;13.15;5.47;;;;;;;20.38;100.00;101241.44;5058345;28;20052;-72
2023/05/05 10:07:40;;;;;;;4.50;2.63;;;;;;;20.19;100.00;101241.91;5063650;28;20059;-72
2023/05/05 10:10:08;;;;;;;12.77;5.25;;;;;;;;;;5067520;28;20045;-74
2023/05/05 10:12:36;;;;;;;12.75;5.45;;;;;;;20.09;100.00;101235.47;5067525;28;20124;-74
2023/05/05 10:15:05;;;;;;;12.60;4.63;;;;;;;20.14;100.00;101250.97;5066255;28;20047;-73
2023/05/05 10:17:35;;;;;;;12.93;3.90;;;;;;;20.20;100.00;101249.91;5067151;28;20053;-74
2023/05/05 10:20:02;;;;;;;13.60;5.18;;;;;;;20.31;100.00;101244.56;5062966;28;20468;-75
2023/05/05 10:22:33;;;;;;;13.65;5.72;;;;;;;20.36;100.00;101243.97;5075918;28;20462;-73
2023/05/05 10:25:08;;;;;;;10.55;4.75;;;;;;;20.39;100.00;101248.63;5068137;28;20048;-76
2023/05/05 10:27:43;;;;;;;9.70;4.53;;;;;;;20.32;100.00;101248.97;5067648;28;20048;-73
2023/05/05 10:30:21;;;;;;;11.57;5.30;;;;;;;20.42;100.00;101238.47;5065555;28;20514;-74
2023/05/05 10:32:53;;;;;;;11.27;4.95;;;;;;;20.36;100.00;101238.31;5067342;28;20399;-70
2023/05/05 10:35:42;;;;;;;10.57;3.95;;;;;;;20.12;100.00;101228.09;5067613;28;20071;-73
2023/05/05 10:38:11;;;;;;;16.50;6.10;;;;;;;20.37;100.00;101220.09;5066100;28;20515;-73
2023/05/05 10:40:47;;;;;;;13.20;5.75;;;;;;;20.61;100.00;101223.81;5067410;28;20079;-72
2023/05/05 10:43:14;;;;;;;14.07;5.20;;;;;;;20.85;100.00;101215.41;5068116;28;20458;-73
2023/05/05 10:45:42;;;;;;;12.73;6.07;;;;;;;21.12;100.00;101220.97;5067286;28;20058;-71
2023/05/05 10:48:19;;;;;;;15.88;6.03;;;;;;;21.33;100.00;101206.56;5066759;28;20048;-71
2023/05/05 10:51:05;;;;;;;12.02;4.65;;;;;;;21.43;100.00;101199.59;5066451;28;20082;-72
2023/05/05 10:53:40;;;;;;;15.32;5.82;;;;;;;21.57;100.00;101192.44;5074441;28;20056;-73
2023/05/05 10:56:12;;;;;;;;;;;;;;;21.72;100.00;101190.47;5073161;28;20055;-71
2023/05/05 10:58:43;;;;;;;12.63;4.80;;;;;;;21.88;100.00;101184.38;5064695;28;19920;-73
2023/05/05 11:01:34;;;;;;;12.13;5.10;;;;;;;21.86;100.00;101182.03;5064801;28;20193;-75
2023/05/05 11:04:20;;;;;;;9.23;4.22;;;;;;;21.74;100.00;101176.63;5067050;28;20499;-72
2023/05/05 11:07:09;;;;;;;11.68;5.05;;;;;;;21.77;100.00;101159.44;5067784;28;20056;-72
2023/05/05 11:10:00;;;;;;;12.38;5.22;;;;;;;21.97;100.00;101165.25;5067175;28;20052;-75
2023/05/05 11:12:28;;;;;;;11.65;4.50;;;;;;;22.01;100.00;101156.59;5064521;28;20476;-76
2023/05/05 11:15:30;;;;;;;10.65;4.18;;;;;;;22.18;100.00;101158.44;5066235;28;20498;-75
2023/05/05 11:17:58;;;;;;;9.18;4.57;;;;;;;22.38;100.00;101157.81;5053181;28;20040;-74
2023/05/05 11:20:34;;;;;;;11.55;4.50;;;;;;;22.50;99.52;101147.41;5066677;28;20450;-74